createdAt,value
2018-03-01T00:00:46.246Z,66.99
2018-03-01T00:01:46.187Z,66.52
2018-03-01T00:02:46.592Z,66.52
2018-03-01T00:03:46.067Z,65.77
2018-03-01T00:04:46.148Z,65.30
2018-03-01T00:05:45.953Z,65.39
2018-03-01T00:06:45.901Z,66.24
2018-03-01T00:07:46.006Z,66.71
2018-03-01T00:08:45.922Z,67.08
2018-03-01T00:09:45.746Z,66.89
2018-03-01T00:10:46.096Z,66.24
2018-03-01T00:11:45.612Z,66.52
2018-03-01T00:12:46.000Z,66.80
2018-03-01T00:13:45.802Z,66.33
2018-03-01T00:14:45.460Z,66.33
2018-03-01T00:15:45.389Z,66.52
2018-03-01T00:16:45.395Z,66.24
2018-03-01T00:17:45.266Z,66.61
2018-03-01T00:18:45.328Z,66.33
2018-03-01T00:19:45.189Z,66.71
2018-03-01T00:20:45.094Z,65.95
2018-03-01T00:21:45.120Z,65.58
2018-03-01T00:22:44.982Z,65.20
2018-03-01T00:23:45.148Z,65.86
2018-03-01T00:24:44.871Z,65.30
2018-03-01T00:25:44.866Z,65.86
2018-03-01T00:26:44.750Z,65.58
2018-03-01T00:27:44.692Z,65.86
2018-03-01T00:28:44.636Z,66.14
2018-03-01T00:29:44.579Z,65.67
2018-03-01T00:30:44.560Z,65.86
2018-03-01T00:31:44.472Z,66.05
2018-03-01T00:32:44.413Z,66.52
2018-03-01T00:33:44.349Z,66.14
2018-03-01T00:34:44.296Z,66.42
2018-03-01T00:35:44.260Z,65.95
2018-03-01T00:36:44.177Z,66.52
2018-03-01T00:37:44.231Z,67.27
2018-03-01T00:38:44.063Z,66.71
2018-03-01T00:39:44.201Z,66.80
2018-03-01T00:40:43.971Z,66.05
2018-03-01T00:41:44.096Z,65.77
2018-03-01T00:42:43.840Z,65.67
2018-03-01T00:43:43.776Z,65.30
2018-03-01T00:44:43.721Z,65.86
2018-03-01T00:45:43.691Z,66.52
2018-03-01T00:46:43.603Z,66.71
2018-03-01T00:47:43.545Z,66.33
2018-03-01T00:48:43.787Z,66.71
2018-03-01T00:49:43.434Z,65.95
2018-03-01T00:50:43.417Z,65.95
2018-03-01T00:51:43.548Z,66.61
2018-03-01T00:52:43.259Z,66.05
2018-03-01T00:53:43.313Z,65.48
2018-03-01T00:54:43.147Z,65.86
2018-03-01T00:55:43.110Z,65.39
2018-03-01T00:56:43.036Z,65.39
2018-03-01T00:57:42.977Z,65.67
2018-03-01T00:58:42.952Z,65.30
2018-03-01T00:59:42.861Z,65.77
2018-03-01T01:00:42.835Z,65.48
2018-03-01T01:01:42.742Z,65.30
2018-03-01T01:02:42.691Z,65.67
2018-03-01T01:03:42.628Z,65.58
2018-03-01T01:04:42.576Z,65.11
2018-03-01T01:05:42.538Z,65.67
2018-03-01T01:06:42.710Z,65.20
2018-03-01T01:07:42.404Z,65.86
2018-03-01T01:08:42.347Z,65.39
2018-03-01T01:09:42.426Z,65.48
2018-03-01T01:10:42.260Z,65.30
2018-03-01T01:11:42.177Z,65.58
2018-03-01T01:12:42.114Z,65.48
2018-03-01T01:13:42.058Z,65.30
2018-03-01T01:14:42.001Z,65.86
2018-03-01T01:15:41.968Z,65.67
2018-03-01T01:16:41.886Z,65.95
2018-03-01T01:17:41.828Z,66.42
2018-03-01T01:18:41.772Z,66.52
2018-03-01T01:19:41.712Z,65.95
2018-03-01T01:20:41.788Z,66.52
2018-03-01T01:21:41.601Z,66.33
2018-03-01T01:22:41.573Z,66.05
2018-03-01T01:23:41.488Z,65.77
2018-03-01T01:24:41.438Z,65.39
2018-03-01T01:25:41.399Z,65.95
2018-03-01T01:26:41.778Z,65.77
2018-03-01T01:27:41.256Z,65.48
2018-03-01T01:28:41.204Z,65.30
2018-03-01T01:29:41.145Z,65.48
2018-03-01T01:30:41.107Z,65.58
2018-03-01T01:31:41.029Z,65.86
2018-03-01T01:32:40.969Z,65.86
2018-03-01T01:33:41.092Z,66.24
2018-03-01T01:34:40.860Z,66.33
2018-03-01T01:35:40.822Z,66.33
2018-03-01T01:36:40.743Z,65.77
2018-03-01T01:37:40.687Z,65.86
2018-03-01T01:38:40.634Z,65.58
2018-03-01T01:39:40.575Z,65.58
2018-03-01T01:40:40.537Z,65.48
2018-03-01T01:41:40.454Z,65.86
2018-03-01T01:42:40.397Z,65.67
2018-03-01T01:43:40.342Z,65.86
2018-03-01T01:44:40.280Z,65.95
2018-03-01T01:45:40.252Z,65.86
2018-03-01T01:46:40.171Z,66.71
2018-03-01T01:47:40.116Z,66.89
2018-03-01T01:48:40.352Z,67.08
2018-03-01T01:49:39.999Z,67.27
2018-03-01T01:50:40.003Z,67.08
2018-03-01T01:51:39.884Z,66.99
2018-03-01T01:52:39.825Z,66.89
2018-03-01T01:53:39.847Z,66.99
2018-03-01T01:54:39.712Z,67.46
2018-03-01T01:55:39.680Z,66.89
2018-03-01T01:56:39.602Z,66.99
2018-03-01T01:57:39.542Z,67.08
2018-03-01T01:58:39.494Z,66.80
2018-03-01T01:59:39.465Z,66.89
2018-03-01T02:00:39.392Z,67.18
2018-03-01T02:01:39.309Z,67.08
2018-03-01T02:02:39.271Z,66.89
2018-03-01T02:03:39.199Z,67.08
2018-03-01T02:04:39.138Z,67.27
2018-03-01T02:05:39.142Z,67.08
2018-03-01T02:06:39.029Z,66.99
2018-03-01T02:07:39.235Z,66.80
2018-03-01T02:08:38.911Z,66.80
2018-03-01T02:09:38.851Z,67.18
2018-03-01T02:10:38.820Z,66.89
2018-03-01T02:11:39.227Z,66.61
2018-03-01T02:12:38.679Z,66.89
2018-03-01T02:13:38.629Z,67.27
2018-03-01T02:14:38.562Z,66.99
2018-03-01T02:15:38.534Z,66.71
2018-03-01T02:16:38.458Z,66.89
2018-03-01T02:17:38.398Z,66.89
2018-03-01T02:18:38.334Z,67.18
2018-03-01T02:19:38.279Z,67.27
2018-03-01T02:20:38.245Z,66.89
2018-03-01T02:21:38.307Z,67.08
2018-03-01T02:22:38.105Z,67.08
2018-03-01T02:23:38.049Z,66.99
2018-03-01T02:24:37.991Z,67.27
2018-03-01T02:25:37.956Z,66.89
2018-03-01T02:26:37.964Z,66.99
2018-03-01T02:27:37.817Z,67.18
2018-03-01T02:28:37.761Z,67.08
2018-03-01T02:29:37.921Z,67.27
2018-03-01T02:30:37.677Z,67.18
2018-03-01T02:31:37.590Z,66.80
2018-03-01T02:32:37.913Z,67.27
2018-03-01T02:33:37.483Z,67.46
2018-03-01T02:34:37.420Z,67.27
2018-03-01T02:35:37.402Z,67.46
2018-03-01T02:36:37.644Z,67.55
2018-03-01T02:37:37.276Z,67.36
2018-03-01T02:38:37.190Z,67.18
2018-03-01T02:39:37.207Z,67.36
2018-03-01T02:40:37.116Z,67.55
2018-03-01T02:41:37.024Z,67.36
2018-03-01T02:42:36.961Z,67.27
2018-03-01T02:43:36.907Z,67.84
2018-03-01T02:44:36.846Z,66.99
2018-03-01T02:45:36.813Z,67.36
2018-03-01T02:46:36.732Z,67.55
2018-03-01T02:47:36.672Z,67.36
2018-03-01T02:48:36.617Z,67.55
2018-03-01T02:49:36.557Z,66.80
2018-03-01T02:50:36.525Z,66.99
2018-03-01T02:51:36.442Z,66.89
2018-03-01T02:52:36.391Z,67.36
2018-03-01T02:53:36.328Z,67.46
2018-03-01T02:54:36.602Z,67.74
2018-03-01T02:55:36.215Z,67.36
2018-03-01T02:56:36.264Z,67.36
2018-03-01T02:57:36.120Z,67.08
2018-03-01T02:58:36.132Z,67.36
2018-03-01T02:59:36.005Z,66.80
2018-03-01T03:00:35.934Z,67.46
2018-03-01T03:01:35.898Z,67.08
2018-03-01T03:02:36.119Z,67.46
2018-03-01T03:03:35.757Z,67.27
2018-03-01T03:04:35.702Z,67.08
2018-03-01T03:05:35.640Z,67.08
2018-03-01T03:06:35.606Z,67.36
2018-03-01T03:07:35.708Z,66.99
2018-03-01T03:08:35.473Z,67.55
2018-03-01T03:09:35.411Z,67.36
2018-03-01T03:10:35.354Z,67.18
2018-03-01T03:11:35.335Z,67.55
2018-03-01T03:12:35.245Z,67.55
2018-03-01T03:13:35.181Z,67.46
2018-03-01T03:14:35.122Z,67.08
2018-03-01T03:15:35.246Z,67.36
2018-03-01T03:16:35.037Z,67.36
2018-03-01T03:17:34.953Z,67.27
2018-03-01T03:18:34.896Z,66.99
2018-03-01T03:19:34.840Z,67.27
2018-03-01T03:20:34.779Z,67.55
2018-03-01T03:21:34.754Z,68.02
2018-03-01T03:22:34.665Z,67.27
2018-03-01T03:23:34.610Z,67.36
2018-03-01T03:24:34.548Z,67.46
2018-03-01T03:25:34.491Z,67.36
2018-03-01T03:26:34.506Z,67.46
2018-03-01T03:27:34.384Z,67.93
2018-03-01T03:28:34.321Z,67.93
2018-03-01T03:29:34.264Z,67.27
2018-03-01T03:30:34.205Z,67.27
2018-03-01T03:31:34.172Z,68.21
2018-03-01T03:32:34.090Z,68.50
2018-03-01T03:33:34.039Z,67.84
2018-03-01T03:34:33.973Z,67.36
2018-03-01T03:35:33.917Z,67.84
2018-03-01T03:36:33.888Z,67.93
2018-03-01T03:37:33.809Z,67.46
2018-03-01T03:38:33.745Z,67.36
2018-03-01T03:39:33.692Z,67.18
2018-03-01T03:40:33.632Z,67.27
2018-03-01T03:41:33.641Z,66.99
2018-03-01T03:42:33.524Z,67.27
2018-03-01T03:43:33.822Z,68.31
2018-03-01T03:44:33.402Z,67.46
2018-03-01T03:45:33.345Z,67.74
2018-03-01T03:46:33.310Z,67.65
2018-03-01T03:47:33.228Z,66.99
2018-03-01T03:48:33.234Z,67.18
2018-03-01T03:49:33.115Z,67.46
2018-03-01T03:50:33.228Z,68.12
2018-03-01T03:51:33.024Z,67.93
2018-03-01T03:52:32.948Z,67.65
2018-03-01T03:53:32.885Z,68.02
2018-03-01T03:54:32.826Z,67.74
2018-03-01T03:55:32.790Z,67.74
2018-03-01T03:56:33.019Z,67.93
2018-03-01T03:57:32.655Z,67.93
2018-03-01T03:58:32.600Z,67.65
2018-03-01T03:59:32.537Z,67.65
2018-03-01T04:00:32.562Z,67.55
2018-03-01T04:01:32.504Z,67.46
2018-03-01T04:02:32.364Z,68.02
2018-03-01T04:03:32.311Z,68.21
2018-03-01T04:04:32.254Z,68.40
2018-03-01T04:05:32.194Z,68.78
2018-03-01T04:06:32.157Z,68.31
2018-03-01T04:07:32.079Z,68.50
2018-03-01T04:08:32.022Z,68.21
2018-03-01T04:09:31.964Z,67.65
2018-03-01T04:10:31.959Z,68.68
2018-03-01T04:11:31.871Z,68.12
2018-03-01T04:12:31.794Z,68.31
2018-03-01T04:13:31.749Z,68.40
2018-03-01T04:14:31.678Z,68.40
2018-03-01T04:15:31.621Z,68.40
2018-03-01T04:16:31.598Z,68.78
2018-03-01T04:17:31.506Z,68.59
2018-03-01T04:18:31.444Z,67.93
2018-03-01T04:19:31.398Z,68.50
2018-03-01T04:20:31.335Z,68.40
2018-03-01T04:21:31.297Z,68.59
2018-03-01T04:22:31.217Z,69.06
2018-03-01T04:23:31.161Z,68.78
2018-03-01T04:24:31.101Z,68.78
2018-03-01T04:25:31.047Z,68.31
2018-03-01T04:26:31.013Z,68.59
2018-03-01T04:27:30.934Z,67.84
2018-03-01T04:28:30.872Z,68.21
2018-03-01T04:29:30.900Z,68.31
2018-03-01T04:30:30.754Z,68.02
2018-03-01T04:31:30.726Z,67.84
2018-03-01T04:32:30.663Z,67.74
2018-03-01T04:33:30.590Z,67.65
2018-03-01T04:34:30.528Z,68.21
2018-03-01T04:35:30.639Z,68.02
2018-03-01T04:36:30.441Z,68.02
2018-03-01T04:37:30.579Z,68.68
2018-03-01T04:38:30.354Z,68.21
2018-03-01T04:39:30.241Z,68.21
2018-03-01T04:40:30.184Z,68.31
2018-03-01T04:41:30.148Z,68.59
2018-03-01T04:42:30.073Z,68.21
2018-03-01T04:43:30.012Z,68.68
2018-03-01T04:44:30.276Z,69.44
2018-03-01T04:45:29.894Z,69.44
2018-03-01T04:46:29.889Z,69.44
2018-03-01T04:47:29.786Z,69.35
2018-03-01T04:48:29.862Z,68.97
2018-03-01T04:49:29.674Z,68.78
2018-03-01T04:50:29.978Z,69.44
2018-03-01T04:51:29.626Z,69.25
2018-03-01T04:52:29.497Z,69.44
2018-03-01T04:53:29.439Z,69.25
2018-03-01T04:54:29.382Z,69.63
2018-03-01T04:55:29.394Z,70.10
2018-03-01T04:56:29.293Z,69.91
2018-03-01T04:57:29.218Z,68.97
2018-03-01T04:58:29.151Z,69.35
2018-03-01T04:59:29.093Z,68.78
2018-03-01T05:00:29.037Z,68.68
2018-03-01T05:01:29.006Z,68.40
2018-03-01T05:02:28.925Z,68.68
2018-03-01T05:03:28.868Z,68.31
2018-03-01T05:04:28.808Z,68.59
2018-03-01T05:05:28.761Z,68.97
2018-03-01T05:06:28.717Z,68.78
2018-03-01T05:07:28.637Z,68.59
2018-03-01T05:08:28.696Z,68.59
2018-03-01T05:09:35.832Z,68.59
2018-03-01T05:10:28.465Z,69.25
2018-03-01T05:11:28.964Z,69.25
2018-03-01T05:12:28.358Z,68.68
2018-03-01T05:13:28.292Z,68.78
2018-03-01T05:14:28.248Z,68.31
2018-03-01T05:15:28.179Z,68.78
2018-03-01T05:16:28.144Z,68.40
2018-03-01T05:17:28.062Z,69.63
2018-03-01T05:18:28.007Z,69.82
2018-03-01T05:19:28.165Z,69.53
2018-03-01T05:20:27.896Z,69.06
2018-03-01T05:21:27.860Z,68.50
2018-03-01T05:22:27.782Z,68.78
2018-03-01T05:23:28.123Z,69.16
2018-03-01T05:24:27.691Z,68.68
2018-03-01T05:25:27.605Z,68.68
2018-03-01T05:26:27.571Z,69.53
2018-03-01T05:27:27.584Z,69.72
2018-03-01T05:28:27.432Z,69.16
2018-03-01T05:29:27.401Z,68.97
2018-03-01T05:30:27.317Z,68.87
2018-03-01T05:31:27.297Z,68.40
2018-03-01T05:32:27.201Z,68.87
2018-03-01T05:33:27.230Z,68.50
2018-03-01T05:34:27.087Z,68.78
2018-03-01T05:35:27.035Z,68.59
2018-03-01T05:36:26.973Z,68.78
2018-03-01T05:37:26.946Z,69.82
2018-03-01T05:38:26.859Z,69.44
2018-03-01T05:39:26.802Z,70.10
2018-03-01T05:40:26.749Z,69.82
2018-03-01T05:41:27.011Z,69.35
2018-03-01T05:42:26.655Z,69.82
2018-03-01T05:43:26.572Z,68.97
2018-03-01T05:44:26.516Z,68.40
2018-03-01T05:45:26.462Z,68.50
2018-03-01T05:46:26.422Z,68.50
2018-03-01T05:47:26.475Z,68.78
2018-03-01T05:48:26.287Z,68.78
2018-03-01T05:50:57.784Z,68.87
2018-03-01T05:51:57.747Z,68.68
2018-03-01T05:52:57.666Z,68.68
2018-03-01T05:53:57.855Z,68.87
2018-03-01T05:54:57.554Z,68.50
2018-03-01T05:55:57.494Z,68.68
2018-03-01T05:56:57.460Z,68.40
2018-03-01T05:57:57.374Z,68.78
2018-03-01T05:58:57.322Z,69.35
2018-03-01T05:59:57.260Z,69.35
2018-03-01T06:00:57.204Z,69.82
2018-03-01T06:01:57.170Z,69.82
2018-03-01T06:02:57.090Z,69.44
2018-03-01T06:03:57.039Z,68.97
2018-03-01T06:04:56.974Z,69.25
2018-03-01T06:05:57.028Z,69.35
2018-03-01T06:06:56.883Z,69.53
2018-03-01T06:07:56.804Z,69.06
2018-03-01T06:08:56.750Z,68.78
2018-03-01T06:09:56.690Z,69.63
2018-03-01T06:10:56.630Z,69.53
2018-03-01T06:11:56.597Z,69.35
2018-03-01T06:12:56.516Z,69.44
2018-03-01T06:13:56.461Z,69.06
2018-03-01T06:14:56.433Z,69.25
2018-03-01T06:15:56.671Z,68.40
2018-03-01T06:16:56.311Z,68.78
2018-03-01T06:17:56.230Z,68.02
2018-03-01T06:18:56.171Z,68.40
2018-03-01T06:19:56.115Z,69.63
2018-03-01T06:20:56.056Z,69.35
2018-03-01T06:21:56.211Z,69.35
2018-03-01T06:22:56.237Z,68.78
2018-03-01T06:23:55.889Z,68.68
2018-03-01T06:24:55.826Z,68.68
2018-03-01T06:25:55.773Z,68.31
2018-03-01T06:26:55.743Z,68.40
2018-03-01T06:27:55.655Z,68.21
2018-03-01T06:28:55.601Z,68.12
2018-03-01T06:29:55.539Z,68.40
2018-03-01T06:30:55.483Z,68.12
2018-03-01T06:31:55.448Z,68.31
2018-03-01T06:32:55.415Z,68.50
2018-03-01T06:33:55.311Z,68.21
2018-03-01T06:34:55.256Z,68.31
2018-03-01T06:35:55.205Z,67.84
2018-03-01T06:36:55.164Z,68.12
2018-03-01T06:37:55.092Z,68.40
2018-03-01T06:38:55.022Z,68.12
2018-03-01T06:39:54.968Z,67.74
2018-03-01T06:40:55.147Z,68.31
2018-03-01T06:41:54.875Z,68.31
2018-03-01T06:42:54.795Z,68.31
2018-03-01T06:43:54.800Z,68.21
2018-03-01T06:44:54.839Z,67.84
2018-03-01T06:45:54.634Z,68.87
2018-03-01T06:46:54.589Z,67.74
2018-03-01T06:47:54.508Z,67.65
2018-03-01T06:48:54.452Z,67.55
2018-03-01T06:49:54.395Z,68.68
2018-03-01T06:50:54.338Z,68.68
2018-03-01T06:51:54.319Z,68.21
2018-03-01T06:52:54.225Z,68.21
2018-03-01T06:53:54.377Z,68.21
2018-03-01T06:54:54.110Z,68.21
2018-03-01T06:55:54.050Z,67.84
2018-03-01T06:56:53.995Z,68.12
2018-03-01T06:57:53.966Z,68.40
2018-03-01T06:58:53.882Z,68.78
2018-03-01T06:59:53.829Z,68.50
2018-03-01T07:00:53.771Z,68.02
2018-03-01T07:01:53.716Z,67.74
2018-03-01T07:02:54.100Z,68.02
2018-03-01T07:03:53.595Z,67.84
2018-03-01T07:04:53.542Z,67.27
2018-03-01T07:05:53.480Z,67.55
2018-03-01T07:06:53.425Z,67.27
2018-03-01T07:07:53.392Z,67.08
2018-03-01T07:08:53.347Z,66.99
2018-03-01T07:09:53.250Z,67.46
2018-03-01T07:10:53.353Z,67.27
2018-03-01T07:11:53.141Z,66.99
2018-03-01T07:12:53.107Z,66.89
2018-03-01T07:13:53.022Z,67.55
2018-03-01T07:14:52.967Z,67.84
2018-03-01T07:15:52.910Z,67.93
2018-03-01T07:16:52.865Z,67.18
2018-03-01T07:17:52.818Z,67.55
2018-03-01T07:18:52.741Z,66.99
2018-03-01T07:19:52.689Z,67.27
2018-03-01T07:20:52.626Z,67.27
2018-03-01T07:21:52.566Z,67.65
2018-03-01T07:22:52.534Z,67.18
2018-03-01T07:23:59.982Z,67.27
2018-03-01T07:24:52.389Z,67.08
2018-03-01T07:25:52.335Z,66.71
2018-03-01T07:26:52.278Z,66.42
2018-03-01T07:27:52.240Z,66.42
2018-03-01T07:28:52.163Z,65.95
2018-03-01T07:29:52.106Z,65.95
2018-03-01T07:30:52.049Z,66.24
2018-03-01T07:31:51.993Z,66.99
2018-03-01T07:32:51.959Z,66.52
2018-03-01T07:33:51.877Z,66.42
2018-03-01T07:34:51.822Z,66.80
2018-03-01T07:35:51.763Z,66.71
2018-03-01T07:36:51.708Z,66.64
2018-03-01T07:37:51.687Z,65.99
2018-03-01T07:38:51.597Z,65.42
2018-03-01T07:39:51.537Z,64.86
2018-03-01T07:40:51.481Z,64.58
2018-03-01T07:41:51.423Z,64.35
2018-03-01T07:42:51.390Z,64.58
2018-03-01T07:43:51.308Z,64.92
2018-03-01T07:44:51.254Z,65.33
2018-03-01T07:45:51.200Z,65.33
2018-03-01T07:46:51.138Z,64.35
2018-03-01T07:47:51.104Z,64.45
2018-03-01T07:48:51.027Z,64.45
2018-03-01T07:49:50.985Z,64.29
2018-03-01T07:50:50.913Z,64.45
2018-03-01T07:51:50.855Z,64.16
2018-03-01T07:52:50.824Z,64.20
2018-03-01T07:53:50.744Z,64.58
2018-03-01T07:54:50.688Z,64.29
2018-03-01T07:55:50.630Z,64.39
2018-03-01T07:56:50.574Z,64.29
2018-03-01T07:57:50.539Z,64.58
2018-03-01T07:58:50.461Z,64.39
2018-03-01T07:59:50.405Z,64.20
2018-03-01T08:00:50.342Z,64.29
2018-03-01T08:01:50.291Z,64.39
2018-03-01T08:02:50.258Z,64.58
2018-03-01T08:03:50.175Z,64.10
2018-03-01T08:04:50.119Z,63.73
2018-03-01T08:05:50.065Z,63.91
2018-03-01T08:06:50.009Z,64.58
2018-03-01T08:07:49.972Z,63.91
2018-03-01T08:08:49.896Z,63.16
2018-03-01T08:09:49.837Z,63.91
2018-03-01T08:10:49.781Z,63.91
2018-03-01T08:11:49.728Z,63.82
2018-03-01T08:12:49.691Z,62.88
2018-03-01T08:13:49.614Z,62.97
2018-03-01T08:14:49.557Z,62.69
2018-03-01T08:15:49.499Z,63.16
2018-03-01T08:16:49.444Z,63.25
2018-03-01T08:17:49.408Z,63.16
2018-03-01T08:18:56.969Z,63.16
2018-03-01T08:19:49.288Z,63.16
2018-03-01T08:20:49.288Z,63.16
2018-03-01T08:21:49.251Z,62.78
2018-03-01T08:22:49.147Z,62.88
2018-03-01T08:23:49.248Z,63.54
2018-03-01T08:24:49.052Z,63.16
2018-03-01T08:25:49.002Z,63.06
2018-03-01T08:26:48.889Z,62.31
2018-03-01T08:27:48.924Z,62.97
2018-03-01T08:28:48.851Z,63.25
2018-03-01T08:29:48.730Z,62.31
2018-03-01T08:30:48.666Z,61.84
2018-03-01T08:31:48.633Z,62.40
2018-03-01T08:32:48.577Z,62.50
2018-03-01T08:33:48.574Z,62.31
2018-03-01T08:34:48.433Z,63.16
2018-03-01T08:35:48.491Z,62.69
2018-03-01T08:36:48.464Z,62.03
2018-03-01T08:37:48.418Z,61.55
2018-03-01T08:38:48.223Z,61.55
2018-03-01T08:39:48.166Z,60.42
2018-03-01T08:40:48.098Z,60.80
2018-03-01T08:41:48.078Z,60.24
2018-03-01T08:42:48.070Z,61.36
2018-03-01T08:43:47.935Z,61.27
2018-03-01T08:44:47.875Z,60.24
2018-03-01T08:45:47.822Z,60.33
2018-03-01T08:46:47.781Z,60.33
2018-03-01T08:47:47.753Z,60.24
2018-03-01T08:48:47.654Z,59.77
2018-03-01T08:49:47.597Z,60.42
2018-03-01T08:50:47.539Z,60.99
2018-03-01T08:51:47.484Z,61.36
2018-03-01T08:52:47.448Z,61.18
2018-03-01T08:53:47.389Z,61.55
2018-03-01T08:54:47.319Z,60.42
2018-03-01T08:55:47.261Z,59.48
2018-03-01T08:56:47.212Z,59.58
2018-03-01T08:57:47.175Z,59.86
2018-03-01T08:58:47.097Z,60.14
2018-03-01T08:59:47.035Z,59.77
2018-03-01T09:00:46.984Z,59.14
2018-03-01T09:01:47.009Z,59.61
2018-03-01T09:02:46.891Z,59.61
2018-03-01T09:03:46.812Z,58.76
2018-03-01T09:04:46.772Z,58.95
2018-03-01T09:05:46.733Z,58.54
2018-03-01T09:06:46.655Z,58.85
2018-03-01T09:07:46.616Z,58.76
2018-03-01T09:08:46.535Z,58.66
2018-03-01T09:09:46.477Z,58.85
2018-03-01T09:10:46.421Z,58.95
2018-03-01T09:11:46.365Z,59.04
2018-03-01T09:12:46.345Z,58.57
2018-03-01T09:13:46.256Z,57.91
2018-03-01T09:14:46.202Z,58.85
2018-03-01T09:15:46.149Z,58.95
2018-03-01T09:16:46.091Z,58.85
2018-03-01T09:17:46.044Z,58.19
2018-03-01T09:18:46.001Z,57.62
2018-03-01T09:19:45.923Z,57.62
2018-03-01T09:20:45.880Z,57.34
2018-03-01T09:21:45.812Z,57.62
2018-03-01T09:22:45.762Z,57.91
2018-03-01T09:23:45.729Z,58.00
2018-03-01T09:24:45.686Z,58.85
2018-03-01T09:25:45.593Z,59.42
2018-03-01T09:26:45.536Z,59.42
2018-03-01T09:27:45.476Z,60.08
2018-03-01T09:28:45.448Z,59.89
2018-03-01T09:29:45.370Z,58.76
2018-03-01T09:30:45.314Z,58.10
2018-03-01T09:31:45.264Z,56.96
2018-03-01T09:32:45.203Z,57.25
2018-03-01T09:33:45.171Z,57.34
2018-03-01T09:34:45.091Z,57.15
2018-03-01T09:35:45.034Z,57.53
2018-03-01T09:36:44.981Z,58.10
2018-03-01T09:37:44.951Z,58.10
2018-03-01T09:38:44.890Z,58.47
2018-03-01T09:39:44.819Z,58.47
2018-03-01T09:40:44.753Z,57.81
2018-03-01T09:41:44.702Z,56.87
2018-03-01T09:42:44.643Z,57.43
2018-03-01T09:43:44.620Z,57.34
2018-03-01T09:44:44.603Z,57.15
2018-03-01T09:45:44.477Z,57.81
2018-03-01T09:46:44.422Z,57.62
2018-03-01T09:47:44.372Z,57.25
2018-03-01T09:48:44.342Z,56.68
2018-03-01T09:49:44.264Z,56.96
2018-03-01T09:50:44.201Z,57.62
2018-03-01T09:51:44.145Z,57.81
2018-03-01T09:52:44.092Z,57.72
2018-03-01T09:53:44.062Z,57.43
2018-03-01T09:54:43.981Z,57.15
2018-03-01T09:55:43.923Z,56.96
2018-03-01T09:56:43.872Z,57.34
2018-03-01T09:57:43.814Z,57.53
2018-03-01T09:58:43.783Z,57.06
2018-03-01T09:59:51.511Z,56.96
2018-03-01T10:00:43.648Z,57.34
2018-03-01T10:01:43.592Z,57.06
2018-03-01T10:02:43.536Z,57.25
2018-03-01T10:03:44.672Z,58.10
2018-03-01T10:04:43.424Z,57.62
2018-03-01T10:05:43.371Z,57.25
2018-03-01T10:06:43.313Z,57.15
2018-03-01T10:07:43.300Z,57.53
2018-03-01T10:08:43.229Z,57.25
2018-03-01T10:09:43.151Z,58.00
2018-03-01T10:10:43.087Z,57.34
2018-03-01T10:11:43.038Z,57.43
2018-03-01T10:12:42.976Z,57.43
2018-03-01T10:13:42.949Z,57.34
2018-03-01T10:14:42.870Z,56.68
2018-03-01T10:15:42.815Z,56.77
2018-03-01T10:16:42.761Z,55.74
2018-03-01T10:17:42.706Z,55.83
2018-03-01T10:18:42.666Z,55.65
2018-03-01T10:19:42.593Z,55.55
2018-03-01T10:20:42.537Z,56.12
2018-03-01T10:21:42.479Z,56.30
2018-03-01T10:22:42.424Z,56.12
2018-03-01T10:23:42.396Z,56.12
2018-03-01T10:24:42.321Z,55.27
2018-03-01T10:25:42.266Z,55.18
2018-03-01T10:26:42.208Z,55.46
2018-03-01T10:27:42.154Z,56.02
2018-03-01T10:28:42.120Z,55.18
2018-03-01T10:29:42.037Z,55.46
2018-03-01T10:30:41.985Z,55.74
2018-03-01T10:31:41.932Z,56.02
2018-03-01T10:32:41.878Z,55.93
2018-03-01T10:33:41.847Z,56.02
2018-03-01T10:34:41.763Z,55.55
2018-03-01T10:35:41.713Z,55.93
2018-03-01T10:36:41.654Z,55.93
2018-03-01T10:37:41.595Z,56.21
2018-03-01T10:38:41.569Z,56.87
2018-03-01T10:39:41.486Z,55.93
2018-03-01T10:40:41.432Z,55.74
2018-03-01T10:41:41.381Z,56.49
2018-03-01T10:42:41.322Z,57.15
2018-03-01T10:43:41.288Z,56.40
2018-03-01T10:44:41.209Z,55.83
2018-03-01T10:45:41.162Z,55.93
2018-03-01T10:46:41.098Z,55.08
2018-03-01T10:47:41.048Z,55.18
2018-03-01T10:48:41.012Z,55.55
2018-03-01T10:49:40.934Z,56.05
2018-03-01T10:50:40.877Z,55.49
2018-03-01T10:51:40.821Z,54.92
2018-03-01T10:52:40.786Z,55.55
2018-03-01T10:53:40.741Z,55.18
2018-03-01T10:54:40.662Z,54.73
2018-03-01T10:55:40.602Z,54.80
2018-03-01T10:56:40.547Z,54.44
2018-03-01T10:57:41.016Z,55.11
2018-03-01T10:58:40.529Z,56.05
2018-03-01T10:59:40.985Z,55.39
2018-03-01T11:00:41.014Z,55.30
2018-03-01T11:01:40.269Z,55.96
2018-03-01T11:02:40.215Z,55.58
2018-03-01T11:03:40.187Z,55.30
2018-03-01T11:04:40.106Z,55.20
2018-03-01T11:05:40.049Z,55.01
2018-03-01T11:06:39.994Z,54.35
2018-03-01T11:07:39.938Z,54.44
2018-03-01T11:08:39.911Z,54.73
2018-03-01T11:09:39.830Z,54.16
2018-03-01T11:10:39.823Z,54.07
2018-03-01T11:11:39.721Z,54.63
2018-03-01T11:12:39.671Z,55.58
2018-03-01T11:13:39.681Z,56.24
2018-03-01T11:14:39.556Z,55.30
2018-03-01T11:15:39.502Z,55.01
2018-03-01T11:16:39.446Z,54.73
2018-03-01T11:17:39.389Z,55.49
2018-03-01T11:18:39.359Z,55.49
2018-03-01T11:19:39.284Z,54.92
2018-03-01T11:20:39.226Z,54.92
2018-03-01T11:21:39.164Z,54.44
2018-03-01T11:22:39.117Z,54.07
2018-03-01T11:23:39.087Z,54.44
2018-03-01T11:24:39.004Z,54.44
2018-03-01T11:25:38.950Z,55.11
2018-03-01T11:26:38.896Z,55.11
2018-03-01T11:27:38.847Z,55.01
2018-03-01T11:28:38.815Z,55.39
2018-03-01T11:29:38.729Z,55.20
2018-03-01T11:30:38.671Z,54.44
2018-03-01T11:31:38.618Z,54.44
2018-03-01T11:32:38.561Z,53.50
2018-03-01T11:33:38.536Z,52.94
2018-03-01T11:34:38.454Z,52.94
2018-03-01T11:35:38.403Z,53.22
2018-03-01T11:36:38.344Z,53.13
2018-03-01T11:37:38.291Z,53.31
2018-03-01T11:38:38.258Z,53.41
2018-03-01T11:39:38.175Z,53.69
2018-03-01T11:40:38.123Z,54.26
2018-03-01T11:41:38.072Z,54.35
2018-03-01T11:42:38.011Z,54.63
2018-03-01T11:43:37.987Z,53.78
2018-03-01T11:44:37.936Z,53.31
2018-03-01T11:45:37.852Z,53.31
2018-03-01T11:46:37.796Z,53.31
2018-03-01T11:47:37.741Z,52.94
2018-03-01T11:48:37.685Z,53.13
2018-03-01T11:49:37.651Z,52.94
2018-03-01T11:50:37.577Z,53.22
2018-03-01T11:51:37.518Z,53.03
2018-03-01T11:52:37.465Z,52.75
2018-03-01T11:53:37.415Z,53.41
2018-03-01T11:54:37.380Z,54.07
2018-03-01T11:55:37.301Z,53.59
2018-03-01T11:56:37.244Z,52.94
2018-03-01T11:57:37.198Z,52.84
2018-03-01T11:58:37.137Z,52.94
2018-03-01T11:59:37.106Z,52.75
2018-03-01T12:00:37.029Z,51.81
2018-03-01T12:01:36.973Z,52.18
2018-03-01T12:02:36.913Z,52.75
2018-03-01T12:03:36.863Z,53.22
2018-03-01T12:04:36.833Z,53.31
2018-03-01T12:05:36.752Z,52.84
2018-03-01T12:06:36.693Z,53.03
2018-03-01T12:07:36.652Z,53.22
2018-03-01T12:08:36.587Z,52.75
2018-03-01T12:09:36.555Z,53.15
2018-03-01T12:10:36.540Z,53.06
2018-03-01T12:11:36.429Z,52.78
2018-03-01T12:12:36.367Z,52.66
2018-03-01T12:13:36.318Z,53.13
2018-03-01T12:14:36.285Z,53.34
2018-03-01T12:15:36.207Z,52.87
2018-03-01T12:16:36.153Z,51.83
2018-03-01T12:17:36.096Z,52.59
2018-03-01T12:18:36.044Z,52.78
2018-03-01T12:19:36.015Z,53.63
2018-03-01T12:20:35.931Z,53.06
2018-03-01T12:21:35.882Z,52.96
2018-03-01T12:22:35.824Z,52.59
2018-03-01T12:23:35.772Z,51.92
2018-03-01T12:24:35.738Z,52.18
2018-03-01T12:25:35.658Z,52.68
2018-03-01T12:26:35.613Z,52.75
2018-03-01T12:27:35.553Z,52.75
2018-03-01T12:28:35.494Z,53.53
2018-03-01T12:29:35.463Z,53.06
2018-03-01T12:30:35.384Z,53.15
2018-03-01T12:31:35.336Z,52.78
2018-03-01T12:32:35.278Z,51.92
2018-03-01T12:33:35.220Z,51.92
2018-03-01T12:34:35.195Z,52.21
2018-03-01T12:35:35.112Z,51.73
2018-03-01T12:36:35.061Z,51.83
2018-03-01T12:37:35.013Z,51.83
2018-03-01T12:38:34.946Z,51.54
2018-03-01T12:39:34.917Z,51.54
2018-03-01T12:40:34.844Z,51.92
2018-03-01T12:41:34.782Z,51.73
2018-03-01T12:42:34.735Z,52.87
2018-03-01T12:43:34.695Z,52.96
2018-03-01T12:44:34.675Z,52.96
2018-03-01T12:45:34.564Z,53.34
2018-03-01T12:46:34.512Z,52.78
2018-03-01T12:47:34.457Z,52.49
2018-03-01T12:48:34.402Z,51.83
2018-03-01T12:49:34.373Z,52.02
2018-03-01T12:50:34.292Z,52.11
2018-03-01T12:51:34.238Z,51.73
2018-03-01T12:52:34.183Z,52.02
2018-03-01T12:53:34.126Z,52.11